^^
Saratoga-Weather Station Historical Data
Daily Summary for January 20, 2022 Units:  English    Metric   Both
Daily Weekly Monthly Yearly Custom
  High: Low: Average:
Temperature: 41.5 °F 34.9 °F 37.9 °F
Dew Point: 37.9 °F 30.2 °F 34.2 °F
Humidity: 96% 70% 86%
Wind Speed: 12.1mph 0.9mph 4.2mph
Wind Gust: 22mph - -
Wind- - West
Pressure: 30.5 in 30.3 in -
Precipitation: 0.01 in    
Historical Graphs
 
 
Tabular Data for January 20, 2022
Time Temperature Dew Point Pressure Wind Wind Speed Wind Gust Humidity Rainfall Rate (Hourly) solar
00:02 38.3 °F 37 °F 30.3 in West 6 mph 10 mph 95% 0 in 0 W/m2
00:07 38.3 °F 37 °F 30.3 in WNW 2.9 mph 7 mph 95% 0 in 0 W/m2
00:12 38.5 °F 37.2 °F 30.3 in West 6.9 mph 11 mph 95% 0 in 0 W/m2
00:17 38.5 °F 37.2 °F 30.3 in West 6 mph 9 mph 95% 0 in 0 W/m2
00:22 38.5 °F 37.2 °F 30.3 in WSW 8.9 mph 10 mph 95% 0 in 0 W/m2
00:27 38.5 °F 37.2 °F 30.3 in West 4 mph 7 mph 95% 0 in 0 W/m2
00:32 38.5 °F 37.2 °F 30.3 in WNW 2.9 mph 8 mph 95% 0 in 0 W/m2
00:37 38.5 °F 37.2 °F 30.3 in West 2.9 mph 7 mph 95% 0 in 0 W/m2
00:42 38.5 °F 37.2 °F 30.3 in WNW 2.9 mph 6 mph 95% 0 in 0 W/m2
00:47 38.5 °F 37.2 °F 30.3 in West 2.9 mph 8 mph 95% 0 in 0 W/m2
00:52 38.7 °F 37.4 °F 30.3 in West 4 mph 7 mph 95% 0 in 0 W/m2
00:57 38.7 °F 37.4 °F 30.3 in West 2 mph 8 mph 95% 0 in 0 W/m2
01:02 38.7 °F 37.4 °F 30.3 in West 2.9 mph 4 mph 95% 0 in 0 W/m2
01:07 38.8 °F 37.6 °F 30.3 in WSW 2.9 mph 7 mph 95% 0 in 0 W/m2
01:12 38.7 °F 37.4 °F 30.3 in WNW 2.9 mph 4 mph 95% 0 in 0 W/m2
01:17 38.7 °F 37.4 °F 30.3 in SSW 4 mph 6 mph 95% 0 in 0 W/m2
01:22 38.8 °F 37.8 °F 30.3 in West 6.9 mph 9 mph 96% 0 in 0 W/m2
01:27 39 °F 37.9 °F 30.3 in West 4 mph 8 mph 96% 0 in 0 W/m2
01:32 38.8 °F 37.6 °F 30.3 in West 8.9 mph 9 mph 95% 0 in 0 W/m2
01:37 38.8 °F 37.6 °F 30.3 in WSW 4.9 mph 7 mph 95% 0 in 0 W/m2
01:42 38.8 °F 37.6 °F 30.3 in West 4 mph 9 mph 95% 0 in 0 W/m2
01:47 38.7 °F 37.4 °F 30.3 in WSW 4 mph 8 mph 95% 0 in 0 W/m2
01:52 38.7 °F 37.4 °F 30.3 in WNW 4 mph 8 mph 95% 0 in 0 W/m2
01:57 38.7 °F 37.4 °F 30.3 in WNW 2.9 mph 10 mph 95% 0 in 0 W/m2
02:02 38.7 °F 37.4 °F 30.3 in WSW 2 mph 7 mph 95% 0 in 0 W/m2
02:07 38.7 °F 37 °F 30.3 in West 2 mph 7 mph 94% 0 in 0 W/m2
02:12 38.7 °F 37 °F 30.3 in NW 2.9 mph 8 mph 94% 0 in 0 W/m2
02:17 38.7 °F 37 °F 30.3 in WNW 2.9 mph 4 mph 94% 0 in 0 W/m2
02:22 38.7 °F 37 °F 30.3 in WNW 6.9 mph 8 mph 94% 0 in 0 W/m2
02:27 38.8 °F 37.2 °F 30.3 in West 4 mph 7 mph 94% 0.01 in 0 W/m2
02:32 38.8 °F 37.6 °F 30.3 in WNW 8.1 mph 11 mph 95% 0.01 in 0 W/m2
02:37 39 °F 37.4 °F 30.3 in WNW 8.1 mph 9 mph 94% 0.01 in 0 W/m2
02:42 39 °F 37.4 °F 30.3 in West 6 mph 9 mph 94% 0.01 in 0 W/m2
02:47 39 °F 37.4 °F 30.3 in WSW 4 mph 9 mph 94% 0.01 in 0 W/m2
02:52 38.8 °F 37.2 °F 30.3 in WSW 4 mph 7 mph 94% 0.01 in 0 W/m2
02:57 38.8 °F 37.2 °F 30.3 in WNW 4 mph 10 mph 94% 0.01 in 0 W/m2
03:02 38.8 °F 37.2 °F 30.3 in WSW 8.1 mph 9 mph 94% 0.01 in 0 W/m2
03:07 39 °F 37.4 °F 30.3 in West 4 mph 8 mph 94% 0.01 in 0 W/m2
03:12 39 °F 37.2 °F 30.3 in West 2.9 mph 9 mph 93% 0.01 in 0 W/m2
03:17 38.8 °F 37 °F 30.3 in West 4 mph 4 mph 93% 0.01 in 0 W/m2
03:22 38.8 °F 37 °F 30.3 in West 2.9 mph 4 mph 93% 0.01 in 0 W/m2
03:27 38.8 °F 37 °F 30.3 in West 2 mph 6 mph 93% 0 in 0 W/m2
03:32 38.7 °F 36.9 °F 30.3 in West 0.9 mph 4 mph 93% 0 in 0 W/m2
03:37 38.7 °F 36.9 °F 30.3 in WNW 2.9 mph 4 mph 93% 0 in 0 W/m2
03:42 38.7 °F 36.9 °F 30.3 in West 6 mph 6 mph 93% 0 in 0 W/m2
03:47 38.7 °F 36.9 °F 30.3 in West 2 mph 2 mph 93% 0 in 0 W/m2
03:52 38.7 °F 36.9 °F 30.3 in West 0.9 mph 3 mph 93% 0 in 0 W/m2
03:57 38.5 °F 36.7 °F 30.3 in West 2 mph 2 mph 93% 0 in 0 W/m2
04:02 38.5 °F 36.7 °F 30.3 in WNW 2.9 mph 4 mph 93% 0 in 0 W/m2
04:07 38.3 °F 36.5 °F 30.3 in West 0.9 mph 2 mph 93% 0 in 0 W/m2
04:12 38.1 °F 36.3 °F 30.3 in WSW 2 mph 4 mph 93% 0 in 0 W/m2
04:17 37.9 °F 36.1 °F 30.3 in West 2 mph 4 mph 93% 0 in 0 W/m2
04:22 37.8 °F 36 °F 30.3 in WNW 2 mph 5 mph 93% 0 in 0 W/m2
04:27 37.8 °F 36 °F 30.3 in West 2 mph 3 mph 93% 0 in 0 W/m2
04:32 37.6 °F 35.8 °F 30.3 in WSW 2 mph 5 mph 93% 0 in 0 W/m2
04:37 37.4 °F 35.6 °F 30.3 in West 6.9 mph 7 mph 93% 0 in 0 W/m2
04:42 37.4 °F 35.6 °F 30.3 in West 2 mph 6 mph 93% 0 in 0 W/m2
04:47 37.4 °F 35.6 °F 30.3 in West 2 mph 6 mph 93% 0 in 0 W/m2
04:52 37.2 °F 35.1 °F 30.3 in WNW 2 mph 8 mph 92% 0 in 0 W/m2
04:57 37.2 °F 35.1 °F 30.3 in WNW 2.9 mph 4 mph 92% 0 in 0 W/m2
05:02 37.2 °F 35.1 °F 30.3 in WNW 2.9 mph 5 mph 92% 0 in 0 W/m2
05:07 37.2 °F 35.1 °F 30.3 in West 6 mph 7 mph 92% 0 in 0 W/m2
05:12 37.2 °F 35.4 °F 30.3 in WNW 2 mph 6 mph 93% 0 in 0 W/m2
05:17 37 °F 34.9 °F 30.3 in WNW 4.9 mph 6 mph 92% 0 in 0 W/m2
05:22 37 °F 34.9 °F 30.3 in West 2.9 mph 7 mph 92% 0 in 0 W/m2
05:27 37 °F 34.9 °F 30.3 in West 2.9 mph 6 mph 92% 0 in 0 W/m2
05:32 36.9 °F 35.1 °F 30.3 in NW 4 mph 7 mph 93% 0 in 0 W/m2
05:38 36.9 °F 35.1 °F 30.3 in West 2 mph 8 mph 93% 0 in 0 W/m2
05:43 36.9 °F 35.1 °F 30.3 in WNW 4 mph 9 mph 93% 0 in 0 W/m2
05:48 37 °F 35.2 °F 30.3 in WNW 4.9 mph 8 mph 93% 0 in 0 W/m2
05:53 37 °F 35.2 °F 30.3 in WSW 2.9 mph 6 mph 93% 0 in 0 W/m2
05:58 37 °F 34.9 °F 30.3 in West 4 mph 6 mph 92% 0 in 0 W/m2
06:03 36.9 °F 35.1 °F 30.3 in WNW 4 mph 7 mph 93% 0 in 0 W/m2
06:08 36.7 °F 34.9 °F 30.3 in WNW 2 mph 6 mph 93% 0 in 0 W/m2
06:13 36.7 °F 34.9 °F 30.3 in WSW 4 mph 6 mph 93% 0 in 0 W/m2
06:18 36.7 °F 34.9 °F 30.3 in WSW 4 mph 7 mph 93% 0 in 0 W/m2
06:23 36.7 °F 34.9 °F 30.3 in WNW 6 mph 7 mph 93% 0 in 0 W/m2
06:28 36.7 °F 34.9 °F 30.3 in WNW 4 mph 9 mph 93% 0 in 0 W/m2
06:33 36.7 °F 34.9 °F 30.3 in West 8.9 mph 9 mph 93% 0 in 0 W/m2
06:38 36.7 °F 34.9 °F 30.3 in West 2 mph 10 mph 93% 0 in 0 W/m2
06:43 36.5 °F 34.7 °F 30.3 in NW 8.9 mph 10 mph 93% 0 in 0 W/m2
06:48 36.5 °F 34.7 °F 30.3 in SW 4 mph 9 mph 93% 0 in 0 W/m2
06:53 36.3 °F 34.5 °F 30.3 in WNW 2.9 mph 9 mph 93% 0 in 0 W/m2
06:58 36.1 °F 34.3 °F 30.3 in WSW 4.9 mph 9 mph 93% 0 in 0 W/m2
07:03 36.1 °F 34.3 °F 30.3 in West 8.9 mph 11 mph 93% 0 in 0 W/m2
07:08 36.1 °F 34.3 °F 30.3 in West 6.9 mph 10 mph 93% 0 in 0 W/m2
07:13 36.1 °F 34.3 °F 30.3 in WNW 4.9 mph 9 mph 93% 0 in 0 W/m2
07:18 36.1 °F 34.3 °F 30.3 in WNW 4.9 mph 9 mph 93% 0 in 0 W/m2
07:23 36.1 °F 34.3 °F 30.3 in WNW 4 mph 11 mph 93% 0 in 0 W/m2
07:28 36.1 °F 34.3 °F 30.3 in West 6.9 mph 11 mph 93% 0 in 0 W/m2
07:33 36.3 °F 34.5 °F 30.3 in WSW 10.1 mph 10 mph 93% 0 in 0 W/m2
07:38 36.5 °F 34.7 °F 30.3 in WSW 4 mph 9 mph 93% 0 in 0 W/m2
07:43 36.5 °F 34.3 °F 30.3 in WSW 4.9 mph 10 mph 92% 0 in 0 W/m2
07:48 36.3 °F 34.5 °F 30.3 in WNW 6.9 mph 8 mph 93% 0 in 0 W/m2
07:53 36.3 °F 34.5 °F 30.3 in West 6 mph 8 mph 93% 0 in 0 W/m2
07:58 36.3 °F 34.5 °F 30.3 in West 12.1 mph 12 mph 93% 0 in 0 W/m2
08:03 36.3 °F 34.5 °F 30.3 in West 4 mph 10 mph 93% 0 in 0 W/m2
08:08 36.1 °F 34.3 °F 30.3 in WNW 10.1 mph 10 mph 93% 0 in 0 W/m2
08:13 36.1 °F 34.3 °F 30.3 in WNW 4.9 mph 8 mph 93% 0 in 0 W/m2
08:18 36 °F 34.2 °F 30.3 in West 4 mph 7 mph 93% 0 in 0 W/m2
08:23 36 °F 34.2 °F 30.3 in West 8.1 mph 11 mph 93% 0 in 0 W/m2
08:28 36 °F 34.2 °F 30.3 in WNW 8.9 mph 9 mph 93% 0 in 5 W/m2
08:33 36.1 °F 34.5 °F 30.3 in West 8.1 mph 14 mph 94% 0 in 7 W/m2
08:38 36.5 °F 34.7 °F 30.3 in WSW 8.9 mph 15 mph 93% 0 in 11 W/m2
08:43 36.9 °F 35.1 °F 30.3 in WSW 8.1 mph 10 mph 93% 0 in 11 W/m2
08:48 36.9 °F 35.1 °F 30.3 in West 8.9 mph 11 mph 93% 0 in 11 W/m2
08:53 36.9 °F 34.7 °F 30.3 in WSW 10.1 mph 10 mph 92% 0 in 11 W/m2
08:58 36.7 °F 34.9 °F 30.3 in West 4 mph 15 mph 93% 0 in 12 W/m2
09:03 36.7 °F 34.5 °F 30.3 in West 4 mph 9 mph 92% 0 in 14 W/m2
09:08 36.5 °F 34.7 °F 30.3 in WSW 8.1 mph 11 mph 93% 0 in 16 W/m2
09:13 36.5 °F 34.7 °F 30.3 in WSW 4.9 mph 9 mph 93% 0 in 19 W/m2
09:18 36.5 °F 34.7 °F 30.4 in West 2.9 mph 10 mph 93% 0 in 25 W/m2
09:23 36.5 °F 34.3 °F 30.3 in WNW 2.9 mph 11 mph 92% 0 in 23 W/m2
09:28 36.7 °F 34.5 °F 30.3 in West 6.9 mph 10 mph 92% 0 in 32 W/m2
09:33 36.7 °F 34.9 °F 30.4 in WSW 8.1 mph 10 mph 93% 0 in 51 W/m2
09:38 36.9 °F 34.7 °F 30.4 in West 2 mph 8 mph 92% 0 in 44 W/m2
09:43 36.9 °F 34.7 °F 30.4 in West 4 mph 9 mph 92% 0 in 46 W/m2
09:48 37 °F 34.9 °F 30.4 in West 6 mph 7 mph 92% 0 in 46 W/m2
09:53 37 °F 34.9 °F 30.4 in SW 8.9 mph 11 mph 92% 0 in 44 W/m2
09:58 37.2 °F 35.1 °F 30.4 in WSW 4 mph 5 mph 92% 0 in 42 W/m2
10:03 37.2 °F 35.1 °F 30.4 in WSW 2.9 mph 8 mph 92% 0 in 35 W/m2
10:08 37.2 °F 34.9 °F 30.4 in West 6 mph 8 mph 91% 0 in 28 W/m2
10:13 37.2 °F 34.9 °F 30.4 in WNW 2 mph 8 mph 91% 0 in 42 W/m2
10:18 37.6 °F 35.2 °F 30.4 in West 6.9 mph 10 mph 91% 0 in 70 W/m2
10:23 37.8 °F 35.4 °F 30.4 in SW 6.9 mph 8 mph 91% 0 in 33 W/m2
10:28 37.9 °F 35.6 °F 30.4 in West 4 mph 9 mph 91% 0 in 47 W/m2
10:33 37.9 °F 35.6 °F 30.4 in WSW 10.1 mph 13 mph 91% 0 in 72 W/m2
10:38 37.9 °F 35.6 °F 30.4 in NW 8.1 mph 9 mph 91% 0 in 98 W/m2
10:43 37.8 °F 35.4 °F 30.4 in WSW 8.1 mph 8 mph 91% 0 in 62 W/m2
10:53 37.8 °F 35.4 °F 30.4 in WNW 2.9 mph 8 mph 91% 0 in 130 W/m2
10:58 37.9 °F 35.8 °F 30.4 in West 6.9 mph 8 mph 92% 0 in 148 W/m2
11:03 38.3 °F 36.1 °F 30.4 in West 2.9 mph 12 mph 92% 0 in 137 W/m2
11:08 38.7 °F 36.5 °F 30.4 in West 6.9 mph 10 mph 92% 0 in 123 W/m2
11:13 38.8 °F 36.5 °F 30.4 in West 2 mph 12 mph 91% 0 in 113 W/m2
11:18 39 °F 36.7 °F 30.4 in West 6 mph 10 mph 91% 0 in 109 W/m2
11:23 39.2 °F 36.9 °F 30.4 in WNW 6 mph 9 mph 91% 0 in 114 W/m2
11:28 39.4 °F 37 °F 30.4 in NW 4.9 mph 9 mph 91% 0 in 137 W/m2
11:33 39.7 °F 37 °F 30.4 in WNW 4 mph 5 mph 90% 0 in 120 W/m2
11:38 40.1 °F 37 °F 30.4 in West 6.9 mph 12 mph 89% 0 in 113 W/m2
11:43 40.3 °F 37.2 °F 30.4 in WNW 10.1 mph 12 mph 89% 0 in 111 W/m2
11:48 40.5 °F 37.2 °F 30.4 in West 6.9 mph 9 mph 88% 0 in 95 W/m2
11:53 40.5 °F 36.9 °F 30.4 in WNW 4.9 mph 11 mph 87% 0 in 102 W/m2
11:58 40.5 °F 36.9 °F 30.4 in West 8.1 mph 9 mph 87% 0 in 123 W/m2
12:03 40.5 °F 36.7 °F 30.4 in WNW 8.1 mph 12 mph 86% 0 in 125 W/m2
12:08 40.5 °F 36.9 °F 30.4 in NW 8.9 mph 9 mph 87% 0 in 118 W/m2
12:13 40.5 °F 36.7 °F 30.4 in West 2 mph 4 mph 86% 0 in 125 W/m2
12:18 40.6 °F 36.5 °F 30.4 in NW 2.9 mph 10 mph 85% 0 in 105 W/m2
12:23 40.6 °F 36.1 °F 30.4 in NNW 2 mph 7 mph 84% 0 in 81 W/m2
12:28 40.6 °F 36 °F 30.4 in WSW 6.9 mph 10 mph 83% 0 in 70 W/m2
12:33 40.6 °F 35.6 °F 30.4 in WNW 8.1 mph 8 mph 82% 0 in 79 W/m2
12:38 40.8 °F 36.1 °F 30.4 in WNW 2 mph 5 mph 83% 0 in 130 W/m2
12:43 41.4 °F 36 °F 30.4 in WSW 8.9 mph 12 mph 81% 0 in 155 W/m2
12:48 41.5 °F 35.8 °F 30.4 in WNW 4.9 mph 11 mph 80% 0 in 134 W/m2
12:53 41.5 °F 35.6 °F 30.4 in NW 4 mph 9 mph 79% 0 in 100 W/m2
12:58 41.4 °F 35.1 °F 30.4 in WSW 8.1 mph 13 mph 78% 0 in 88 W/m2
13:03 41.2 °F 35.2 °F 30.4 in NW 8.1 mph 10 mph 79% 0 in 83 W/m2
13:08 41 °F 35.1 °F 30.4 in NW 2.9 mph 13 mph 79% 0 in 67 W/m2
13:13 41 °F 35.1 °F 30.4 in WNW 4.9 mph 9 mph 79% 0 in 77 W/m2
13:18 41.2 °F 35.2 °F 30.4 in WNW 2 mph 9 mph 79% 0 in 116 W/m2
13:23 41.4 °F 34 °F 30.4 in NNW 10.1 mph 14 mph 75% 0 in 98 W/m2
13:28 41.2 °F 33.3 °F 30.4 in North 8.9 mph 16 mph 73% 0 in 90 W/m2
13:33 41 °F 33.4 °F 30.4 in West 6 mph 13 mph 74% 0 in 120 W/m2
13:38 41 °F 33.1 °F 30.4 in West 8.1 mph 16 mph 73% 0 in 81 W/m2
13:43 41 °F 33.4 °F 30.4 in NNE 2.9 mph 6 mph 74% 0 in 104 W/m2
13:48 41 °F 32.7 °F 30.4 in NW 2.9 mph 8 mph 72% 0 in 77 W/m2
13:53 41 °F 33.4 °F 30.4 in WNW 2 mph 10 mph 74% 0 in 118 W/m2
13:58 41 °F 32.7 °F 30.4 in NW 2 mph 11 mph 72% 0 in 67 W/m2
14:03 40.8 °F 32.5 °F 30.4 in WNW 4 mph 13 mph 72% 0 in 56 W/m2
14:08 40.8 °F 32.2 °F 30.4 in NW 4.9 mph 7 mph 71% 0 in 83 W/m2
14:13 40.8 °F 32.5 °F 30.4 in West 0.9 mph 13 mph 72% 0 in 74 W/m2
14:18 40.8 °F 32.5 °F 30.4 in WNW 2.9 mph 6 mph 72% 0 in 91 W/m2
14:23 40.8 °F 32.9 °F 30.4 in NW 4.9 mph 10 mph 73% 0 in 120 W/m2
14:28 40.8 °F 32.2 °F 30.4 in NNW 4.9 mph 12 mph 71% 0 in 86 W/m2
14:33 40.6 °F 31.6 °F 30.4 in NW 2 mph 6 mph 70% 0 in 76 W/m2
14:38 40.6 °F 31.6 °F 30.4 in North 4.9 mph 22 mph 70% 0 in 67 W/m2
14:43 40.6 °F 32 °F 30.4 in NNW 4.9 mph 11 mph 71% 0 in 67 W/m2
14:48 40.5 °F 32.2 °F 30.4 in WNW 4 mph 16 mph 72% 0 in 58 W/m2
14:53 40.5 °F 32.2 °F 30.4 in WNW 8.9 mph 9 mph 72% 0 in 58 W/m2
14:58 40.1 °F 31.5 °F 30.4 in NNW 4 mph 13 mph 71% 0 in 54 W/m2
15:03 39.7 °F 31.5 °F 30.4 in WNW 4 mph 10 mph 72% 0 in 56 W/m2
15:08 39.6 °F 31.3 °F 30.4 in WNW 6.9 mph 9 mph 72% 0 in 60 W/m2
15:13 39.4 °F 31.1 °F 30.4 in NW 4 mph 9 mph 72% 0 in 56 W/m2
15:18 39.4 °F 31.5 °F 30.4 in WNW 2.9 mph 7 mph 73% 0 in 62 W/m2
15:23 39.2 °F 31.6 °F 30.4 in West 4 mph 6 mph 74% 0 in 54 W/m2
15:28 39 °F 31.5 °F 30.4 in WNW 2.9 mph 4 mph 74% 0 in 63 W/m2
15:33 39 °F 31.8 °F 30.4 in WNW 4 mph 7 mph 75% 0 in 58 W/m2
15:38 39 °F 31.8 °F 30.4 in NW 4 mph 4 mph 75% 0 in 56 W/m2
15:43 39 °F 31.8 °F 30.4 in WNW 2.9 mph 8 mph 75% 0 in 53 W/m2
15:48 39 °F 31.8 °F 30.4 in WNW 2.9 mph 6 mph 75% 0 in 56 W/m2
15:53 38.8 °F 31.6 °F 30.4 in NW 2 mph 8 mph 75% 0 in 76 W/m2
15:58 39 °F 31.8 °F 30.4 in West 6 mph 8 mph 75% 0 in 40 W/m2
16:03 39 °F 31.8 °F 30.4 in West 4 mph 6 mph 75% 0 in 35 W/m2
16:08 39 °F 31.8 °F 30.4 in WNW 4 mph 8 mph 75% 0 in 30 W/m2
16:13 39 °F 31.8 °F 30.4 in WNW 2 mph 5 mph 75% 0 in 28 W/m2
16:18 39 °F 31.8 °F 30.4 in WNW 4.9 mph 10 mph 75% 0 in 25 W/m2
16:23 39.2 °F 31.6 °F 30.4 in WNW 2 mph 8 mph 74% 0 in 21 W/m2
16:28 39.4 °F 31.1 °F 30.4 in WNW 4 mph 7 mph 72% 0 in 16 W/m2
16:33 39.4 °F 31.1 °F 30.4 in WNW 2.9 mph 6 mph 72% 0 in 11 W/m2
16:38 39.2 °F 30.9 °F 30.4 in NW 4 mph 10 mph 72% 0 in 9 W/m2
16:43 39 °F 30.7 °F 30.4 in West 8.1 mph 9 mph 72% 0 in 7 W/m2
16:48 39 °F 30.7 °F 30.4 in NW 4.9 mph 10 mph 72% 0 in 0 W/m2
16:53 38.8 °F 30.6 °F 30.4 in WNW 4 mph 5 mph 72% 0 in 0 W/m2
16:58 38.8 °F 30.2 °F 30.4 in NW 2.9 mph 8 mph 71% 0 in 0 W/m2
17:03 38.8 °F 30.6 °F 30.4 in West 6 mph 6 mph 72% 0 in 0 W/m2
17:08 38.8 °F 30.6 °F 30.4 in WNW 2 mph 8 mph 72% 0 in 0 W/m2
17:13 38.7 °F 30.4 °F 30.4 in NW 2.9 mph 5 mph 72% 0 in 0 W/m2
17:18 38.7 °F 30.7 °F 30.4 in NW 0.9 mph 8 mph 73% 0 in 0 W/m2
17:23 38.7 °F 31.1 °F 30.4 in WNW 2 mph 6 mph 74% 0 in 0 W/m2
17:28 38.5 °F 30.9 °F 30.4 in WNW 0.9 mph 6 mph 74% 0 in 0 W/m2
17:33 38.1 °F 30.6 °F 30.4 in WNW 0.9 mph 7 mph 74% 0 in 0 W/m2
17:38 38.1 °F 30.9 °F 30.4 in WNW 2 mph 6 mph 75% 0 in 0 W/m2
17:43 37.9 °F 31.1 °F 30.4 in West 0.9 mph 4 mph 76% 0 in 0 W/m2
17:48 37.9 °F 31.1 °F 30.4 in West 2.9 mph 7 mph 76% 0 in 0 W/m2
17:53 37.8 °F 31.3 °F 30.4 in WNW 2.9 mph 3 mph 77% 0 in 0 W/m2
17:58 37.8 °F 31.3 °F 30.4 in West 4 mph 8 mph 77% 0 in 0 W/m2
18:03 37.8 °F 31.5 °F 30.4 in West 4 mph 7 mph 78% 0 in 0 W/m2
18:08 37.8 °F 31.5 °F 30.4 in WNW 2.9 mph 8 mph 78% 0 in 0 W/m2
18:13 37.8 °F 31.5 °F 30.4 in WNW 2 mph 6 mph 78% 0 in 0 W/m2
18:18 37.6 °F 31.3 °F 30.4 in West 2 mph 6 mph 78% 0 in 0 W/m2
18:23 37.6 °F 31.6 °F 30.4 in WNW 2 mph 4 mph 79% 0 in 0 W/m2
18:28 37.6 °F 31.6 °F 30.4 in WNW 2.9 mph 4 mph 79% 0 in 0 W/m2
18:33 37.2 °F 31.3 °F 30.4 in WNW 0.9 mph 4 mph 79% 0 in 0 W/m2
18:38 37.2 °F 31.6 °F 30.4 in West 2.9 mph 4 mph 80% 0 in 0 W/m2
18:43 37 °F 31.5 °F 30.4 in WSW 0.9 mph 3 mph 80% 0 in 0 W/m2
18:48 36.9 °F 31.3 °F 30.4 in WNW 0.9 mph 2 mph 80% 0 in 0 W/m2
18:53 36.7 °F 31.1 °F 30.4 in West 2.9 mph 4 mph 80% 0 in 0 W/m2
18:58 36.7 °F 31.5 °F 30.4 in WNW 2 mph 3 mph 81% 0 in 0 W/m2
19:03 36.7 °F 31.1 °F 30.4 in West 2 mph 3 mph 80% 0 in 0 W/m2
19:08 36.7 °F 31.1 °F 30.4 in WNW 2 mph 4 mph 80% 0 in 0 W/m2
19:13 36.7 °F 31.5 °F 30.4 in WSW 2 mph 4 mph 81% 0 in 0 W/m2
19:18 36.7 °F 31.5 °F 30.4 in West 2 mph 3 mph 81% 0 in 0 W/m2
19:23 36.7 °F 31.5 °F 30.4 in WNW 2.9 mph 4 mph 81% 0 in 0 W/m2
19:28 36.7 °F 31.5 °F 30.4 in WNW 2 mph 6 mph 81% 0 in 0 W/m2
19:33 36.7 °F 31.5 °F 30.4 in West 0.9 mph 2 mph 81% 0 in 0 W/m2
19:38 36.7 °F 31.5 °F 30.4 in WNW 0.9 mph 6 mph 81% 0 in 0 W/m2
19:43 36.9 °F 31.6 °F 30.4 in West 0.9 mph 4 mph 81% 0 in 0 W/m2
19:48 36.9 °F 31.8 °F 30.4 in West 2 mph 3 mph 82% 0 in 0 W/m2
19:53 36.9 °F 31.8 °F 30.4 in WNW 0.9 mph 3 mph 82% 0 in 0 W/m2
19:58 36.9 °F 31.8 °F 30.4 in WSW 4.9 mph 7 mph 82% 0 in 0 W/m2
20:03 37 °F 32.4 °F 30.4 in WSW 4 mph 7 mph 83% 0 in 0 W/m2
20:08 36.9 °F 32.2 °F 30.4 in West 0.9 mph 7 mph 83% 0 in 0 W/m2
20:13 36.9 °F 32.2 °F 30.4 in West 6 mph 6 mph 83% 0 in 0 W/m2
20:18 36.9 °F 32.2 °F 30.4 in WSW 4.9 mph 8 mph 83% 0 in 0 W/m2
20:23 36.9 °F 32.2 °F 30.4 in WSW 4.9 mph 6 mph 83% 0 in 0 W/m2
20:28 36.9 °F 32.2 °F 30.4 in West 4 mph 9 mph 83% 0 in 0 W/m2
20:33 36.9 °F 32.2 °F 30.4 in WNW 2 mph 4 mph 83% 0 in 0 W/m2
20:38 36.9 °F 32.5 °F 30.4 in NW 0.9 mph 4 mph 84% 0 in 0 W/m2
20:43 36.7 °F 32.4 °F 30.4 in WNW 0.9 mph 4 mph 84% 0 in 0 W/m2
20:48 36.7 °F 32.4 °F 30.4 in West 2.9 mph 4 mph 84% 0 in 0 W/m2
20:53 36.7 °F 32.5 °F 30.4 in West 4 mph 7 mph 85% 0 in 0 W/m2
20:58 36.5 °F 32.4 °F 30.4 in West 8.1 mph 11 mph 85% 0 in 0 W/m2
21:03 36.5 °F 32.4 °F 30.4 in West 4 mph 7 mph 85% 0 in 0 W/m2
21:08 36.5 °F 32.7 °F 30.4 in NW 2.9 mph 9 mph 86% 0 in 0 W/m2
21:13 36.5 °F 32.7 °F 30.5 in West 4 mph 7 mph 86% 0 in 0 W/m2
21:18 36.3 °F 32.5 °F 30.5 in WSW 2.9 mph 9 mph 86% 0 in 0 W/m2
21:23 36.3 °F 32.5 °F 30.5 in West 2.9 mph 6 mph 86% 0 in 0 W/m2
21:28 36.3 °F 32.5 °F 30.5 in NW 0.9 mph 7 mph 86% 0 in 0 W/m2
21:33 36.3 °F 32.5 °F 30.5 in WNW 2 mph 4 mph 86% 0 in 0 W/m2
21:38 36.1 °F 32.4 °F 30.5 in NW 4 mph 7 mph 86% 0 in 0 W/m2
21:43 36.1 °F 32.7 °F 30.5 in NW 2.9 mph 4 mph 87% 0 in 0 W/m2
21:48 36 °F 32.5 °F 30.5 in West 4 mph 7 mph 87% 0 in 0 W/m2
21:53 36 °F 32.5 °F 30.5 in WSW 2.9 mph 5 mph 87% 0 in 0 W/m2
21:58 35.8 °F 32.4 °F 30.5 in WNW 4 mph 4 mph 87% 0 in 0 W/m2
22:03 35.8 °F 32.4 °F 30.5 in WNW 2 mph 2 mph 87% 0 in 0 W/m2
22:08 35.8 °F 32.5 °F 30.5 in WNW 2 mph 5 mph 88% 0 in 0 W/m2
22:13 35.8 °F 32.5 °F 30.5 in WNW 2 mph 3 mph 88% 0 in 0 W/m2
22:18 35.8 °F 32.5 °F 30.5 in West 2.9 mph 5 mph 88% 0 in 0 W/m2
22:23 35.8 °F 32.5 °F 30.5 in West 4 mph 6 mph 88% 0 in 0 W/m2
22:28 36 °F 32.7 °F 30.5 in NW 2.9 mph 6 mph 88% 0 in 0 W/m2
22:33 36.1 °F 32.7 °F 30.5 in West 2 mph 7 mph 87% 0 in 0 W/m2
22:38 36.1 °F 32.7 °F 30.5 in WNW 2.9 mph 4 mph 87% 0 in 0 W/m2
22:43 36.1 °F 32.7 °F 30.5 in West 4 mph 7 mph 87% 0 in 0 W/m2
22:48 36.1 °F 32.7 °F 30.5 in WNW 2.9 mph 8 mph 87% 0 in 0 W/m2
22:53 36.1 °F 32.7 °F 30.5 in WNW 2.9 mph 5 mph 87% 0 in 0 W/m2
22:58 36 °F 32.5 °F 30.5 in NW 2.9 mph 6 mph 87% 0 in 0 W/m2
23:03 35.8 °F 32 °F 30.5 in WSW 4.9 mph 5 mph 86% 0 in 0 W/m2
23:08 35.6 °F 32.2 °F 30.5 in West 2.9 mph 6 mph 87% 0 in 0 W/m2
23:13 35.4 °F 32 °F 30.5 in WNW 4 mph 4 mph 87% 0 in 0 W/m2
23:18 35.2 °F 31.8 °F 30.5 in West 2.9 mph 4 mph 87% 0 in 0 W/m2
23:24 35.2 °F 31.8 °F 30.5 in West 2 mph 3 mph 87% 0 in 0 W/m2
23:29 35.2 °F 31.8 °F 30.5 in WNW 6 mph 7 mph 87% 0 in 0 W/m2
23:34 35.2 °F 31.8 °F 30.5 in WSW 2.9 mph 6 mph 87% 0 in 0 W/m2
23:39 35.2 °F 31.8 °F 30.5 in WNW 2 mph 7 mph 87% 0 in 0 W/m2
23:44 35.2 °F 31.8 °F 30.5 in NW 0.9 mph 4 mph 87% 0 in 0 W/m2
23:49 35.2 °F 31.8 °F 30.5 in West 2.9 mph 3 mph 87% 0 in 0 W/m2
23:54 35.1 °F 31.6 °F 30.5 in WNW 2.9 mph 6 mph 87% 0 in 0 W/m2
23:59 34.9 °F 31.5 °F 30.5 in WNW 2.9 mph 4 mph 87% 0 in 0 W/m2
Juneau County Weather
Compliments of Weather Underground - 4 mb